Pelzer, South Carolina
Current Conditions -  °F | °C
As of 2:47 PM on Thursday 30 Oct 2014 (Local Time) from KGYH Reporting Station
Clear Clear  
Wind Chill: 17°   Ceiling: Unl
Heat Index: 17°   Visibility: 10mi
Dew Point: -1°   Wind: 0mph
Humidity: 30%   Direction: NA
Pressure: 29.99"   Gusts: NA
Location:  34.64°N, 82.46°W
Report Text: KGYH 301847Z 00000KT 10SM CLR 17/M01 A2999
Loading
Personal Weather Stations






























Interactive Weather Map
Tropical Storm Tracking
New forecast layout! Learn more

10-Day Weather Forecast

Advertisements
Track Severe Weather on mobile